La Madera, New Mexico
Current Conditions -  °F | °C
As of 2:55 PM on Monday 22 Dec 2014 (Local Time) from KSKX Reporting Station
Thunderstorm Thunderstorm  
Wind Chill: 24°   Ceiling: 600
Heat Index: 34°   Visibility: 0.75mi
Dew Point: 28°   Wind: 14mph
Humidity: 81%   Direction: 10°N
Pressure: 29.66"   Gusts: 30mph
Location:  36.39°N, 106.04°W
Report Text: KSKX 222155Z AUTO 01012G26KT 3/4SM TS OVC006 01/M02 A2966 RMK AO1 WSHFT 23 LTG DSNT E TSB28E43B44 P0002
Loading
Personal Weather Stations






























Interactive Weather Map New forecast layout! Learn more

10-Day Weather Forecast

Advertisements
Track Severe Weather on mobile